Qingyuan, China
Current Conditions -  °F | °C
As of 7:00 AM on Friday 28 Nov 2014 (Local Time) from ZYTX Reporting Station
Overcast Overcast  
Wind Chill: 25°   Ceiling: 3000
Heat Index: 30°   Visibility: 6mi
Dew Point:   Wind: 4mph
Humidity: 37%   Direction: 20°NNE
Pressure: 30.15"   Gusts: NA
Location:  42.1°N, 124.95°E
Report Text: ZYTX 272300Z 02002MPS 9999 OVC030 M01/M14 Q1021 NOSIG
Loading
Personal Weather Stations






























Interactive Weather Map New forecast layout! Learn more

10-Day Weather Forecast

Advertisements
Track Severe Weather on mobile